PWSweather.com
Personal Weather Stations
Station Observations
WAREHAM1
West Wareham, MA 02576

West Wareham, MA 02576

Lat: 41.7961059, Lon: -70.775612

Elevation: 88

Station Type: Davis Vantage Vue

http://www.gateway2capecod.com

High Low Average
Temperature 30.6°F-0.8°F 22.3°F-5.4°F 26.2°F-3.2°F
Dew Point 28.6°F-1.9°F 20.3°F-6.5°F 24.3°F-4.3°F
Winds 2.0 mph NW3.2 mph NW Calm Calm 0.6 mph 1.0 mph
Wind Gusts 7.0 mph11.3 mph -- 3.0 mph4.8 mph
Humidity 95% 89% 92%
Pressure 29.75 in1007.50 in 29.58 in1001.70 in -
Precipitation 0.00 in0.00 in - -
Hour Temp Dew Point Humidity Winds Wind Gusts Pressure Precip Precip Rate Daily Precip Total
12:08 AM 22.3°F-5.4°C 20.8°F-6.2°C 94% 2.0 mph NW3.2 kmh NW 4.9 mph7.9 kmh 29.75 in1007.5 mb 0.00 in0.0 mm 0.00 in0.0 mm 0.00 in0.0 mm
12:18 AM 22.3°F-5.4°C 20.8°F-6.2°C 94% 0.9 mph W1.4 kmh W 2.9 mph4.7 kmh 29.75 in1007.5 mb 0.00 in0.0 mm 0.00 in0.0 mm 0.00 in0.0 mm
12:28 AM 22.3°F-5.4°C 20.8°F-6.2°C 94% 2.0 mph WNW3.2 kmh WNW 6.0 mph9.7 kmh 29.75 in1007.5 mb 0.00 in0.0 mm 0.00 in0.0 mm 0.00 in0.0 mm
12:38 AM 22.5°F-5.3°C 21.0°F-6.1°C 94% 2.0 mph W3.2 kmh W 4.9 mph7.9 kmh 29.75 in1007.5 mb 0.00 in0.0 mm 0.00 in0.0 mm 0.00 in0.0 mm
12:48 AM 22.5°F-5.3°C 21.0°F-6.1°C 94% 2.0 mph W3.2 kmh W 4.9 mph7.9 kmh 29.75 in1007.5 mb 0.00 in0.0 mm 0.00 in0.0 mm 0.00 in0.0 mm
12:58 AM 22.6°F-5.2°C 21.2°F-6.0°C 94% 2.0 mph NW3.2 kmh NW 5.0 mph8.0 kmh 29.75 in1007.5 mb 0.00 in0.0 mm 0.00 in0.0 mm 0.00 in0.0 mm
01:08 AM 22.8°F-5.1°C 21.4°F-5.9°C 94% 0.9 mph WNW1.4 kmh WNW 5.0 mph8.0 kmh 29.75 in1007.5 mb 0.00 in0.0 mm 0.00 in0.0 mm 0.00 in0.0 mm
01:18 AM 22.8°F-5.1°C 21.4°F-5.9°C 94% 0.9 mph W1.4 kmh W 4.0 mph6.4 kmh 29.75 in1007.5 mb 0.00 in0.0 mm 0.00 in0.0 mm 0.00 in0.0 mm
01:28 AM 23.0°F-5.0°C 21.6°F-5.8°C 94% 0.9 mph WNW1.4 kmh WNW 3.0 mph4.8 kmh 29.75 in1007.5 mb 0.00 in0.0 mm 0.00 in0.0 mm 0.00 in0.0 mm
01:38 AM 23.4°F-4.8°C 21.9°F-5.6°C 94% 0.9 mph WNW1.4 kmh WNW 5.0 mph8.0 kmh 29.75 in1007.5 mb 0.00 in0.0 mm 0.00 in0.0 mm 0.00 in0.0 mm
01:48 AM 23.4°F-4.8°C 21.9°F-5.6°C 94% 2.0 mph NW3.2 kmh NW 5.0 mph8.0 kmh 29.75 in1007.5 mb 0.00 in0.0 mm 0.00 in0.0 mm 0.00 in0.0 mm
01:58 AM 23.4°F-4.8°C 21.9°F-5.6°C 94% 0.9 mph W1.4 kmh W 4.0 mph6.4 kmh 29.75 in1007.5 mb 0.00 in0.0 mm 0.00 in0.0 mm 0.00 in0.0 mm
02:08 AM 23.5°F-4.7°C 22.1°F-5.5°C 94% 0.9 mph WNW1.4 kmh WNW 4.0 mph6.4 kmh 29.75 in1007.5 mb 0.00 in0.0 mm 0.00 in0.0 mm 0.00 in0.0 mm
02:18 AM 23.7°F-4.6°C 22.3°F-5.4°C 94% 0.9 mph NW1.4 kmh NW 4.0 mph6.4 kmh 29.75 in1007.5 mb 0.00 in0.0 mm 0.00 in0.0 mm 0.00 in0.0 mm
02:28 AM 23.9°F-4.5°C 22.5°F-5.3°C 94% 0.9 mph NW1.4 kmh NW 2.9 mph4.7 kmh 29.75 in1007.5 mb 0.00 in0.0 mm 0.00 in0.0 mm 0.00 in0.0 mm
02:38 AM 23.9°F-4.5°C 22.5°F-5.3°C 94% 0.9 mph WNW1.4 kmh WNW 2.9 mph4.7 kmh 29.75 in1007.5 mb 0.00 in0.0 mm 0.00 in0.0 mm 0.00 in0.0 mm
02:48 AM 24.1°F-4.4°C 22.6°F-5.2°C 94% Calm Calm 2.9 mph4.7 kmh 29.74 in1007.1 mb 0.00 in0.0 mm 0.00 in0.0 mm 0.00 in0.0 mm
02:58 AM 24.3°F-4.3°C 22.8°F-5.1°C 94% 0.9 mph W1.4 kmh W 3.0 mph4.8 kmh 29.74 in1007.1 mb 0.00 in0.0 mm 0.00 in0.0 mm 0.00 in0.0 mm
03:08 AM 24.1°F-4.4°C 22.6°F-5.2°C 94% 0.9 mph WNW1.4 kmh WNW 2.9 mph4.7 kmh 29.73 in1006.8 mb 0.00 in0.0 mm 0.00 in0.0 mm 0.00 in0.0 mm
03:18 AM 24.1°F-4.4°C 22.6°F-5.2°C 94% 0.9 mph WNW1.4 kmh WNW 4.0 mph6.4 kmh 29.74 in1007.1 mb 0.00 in0.0 mm 0.00 in0.0 mm 0.00 in0.0 mm
03:28 AM 24.1°F-4.4°C 22.6°F-5.2°C 94% 0.9 mph NW1.4 kmh NW 2.9 mph4.7 kmh 29.73 in1006.8 mb 0.00 in0.0 mm 0.00 in0.0 mm 0.00 in0.0 mm
03:38 AM 24.1°F-4.4°C 22.6°F-5.2°C 94% 0.9 mph W1.4 kmh W 2.9 mph4.7 kmh 29.72 in1006.4 mb 0.00 in0.0 mm 0.00 in0.0 mm 0.00 in0.0 mm
03:48 AM 24.1°F-4.4°C 22.6°F-5.2°C 94% 0.9 mph WNW1.4 kmh WNW 2.9 mph4.7 kmh 29.72 in1006.4 mb 0.00 in0.0 mm 0.00 in0.0 mm 0.00 in0.0 mm
03:58 AM 23.9°F-4.5°C 22.5°F-5.3°C 94% 0.9 mph WNW1.4 kmh WNW 2.9 mph4.7 kmh 29.71 in1006.1 mb 0.00 in0.0 mm 0.00 in0.0 mm 0.00 in0.0 mm
04:08 AM 23.9°F-4.5°C 22.5°F-5.3°C 94% 0.9 mph WNW1.4 kmh WNW 4.0 mph6.4 kmh 29.72 in1006.4 mb 0.00 in0.0 mm 0.00 in0.0 mm 0.00 in0.0 mm
04:18 AM 24.1°F-4.4°C 22.6°F-5.2°C 94% 0.9 mph NW1.4 kmh NW 4.0 mph6.4 kmh 29.72 in1006.4 mb 0.00 in0.0 mm 0.00 in0.0 mm 0.00 in0.0 mm
04:28 AM 24.1°F-4.4°C 22.6°F-5.2°C 94% 0.9 mph WNW1.4 kmh WNW 4.9 mph7.9 kmh 29.72 in1006.4 mb 0.00 in0.0 mm 0.00 in0.0 mm 0.00 in0.0 mm
04:38 AM 24.1°F-4.4°C 22.6°F-5.2°C 94% 0.9 mph W1.4 kmh W 4.0 mph6.4 kmh 29.72 in1006.4 mb 0.00 in0.0 mm 0.00 in0.0 mm 0.00 in0.0 mm
04:48 AM 24.3°F-4.3°C 23.0°F-5.0°C 95% 0.9 mph WNW1.4 kmh WNW 2.9 mph4.7 kmh 29.72 in1006.4 mb 0.00 in0.0 mm 0.00 in0.0 mm 0.00 in0.0 mm
04:58 AM 24.1°F-4.4°C 22.6°F-5.2°C 94% 0.9 mph NW1.4 kmh NW 4.0 mph6.4 kmh 29.73 in1006.8 mb 0.00 in0.0 mm 0.00 in0.0 mm 0.00 in0.0 mm
05:08 AM 24.1°F-4.4°C 22.6°F-5.2°C 94% 0.9 mph NW1.4 kmh NW 4.0 mph6.4 kmh 29.73 in1006.8 mb 0.00 in0.0 mm 0.00 in0.0 mm 0.00 in0.0 mm
05:18 AM 24.1°F-4.4°C 22.6°F-5.2°C 94% 0.9 mph WNW1.4 kmh WNW 4.0 mph6.4 kmh 29.73 in1006.8 mb 0.00 in0.0 mm 0.00 in0.0 mm 0.00 in0.0 mm
05:28 AM 23.7°F-4.6°C 22.3°F-5.4°C 94% 0.9 mph WNW1.4 kmh WNW 4.0 mph6.4 kmh 29.72 in1006.4 mb 0.00 in0.0 mm 0.00 in0.0 mm 0.00 in0.0 mm
05:38 AM 23.5°F-4.7°C 22.1°F-5.5°C 94% 0.9 mph W1.4 kmh W 4.0 mph6.4 kmh 29.71 in1006.1 mb 0.00 in0.0 mm 0.00 in0.0 mm 0.00 in0.0 mm
05:48 AM 23.5°F-4.7°C 22.1°F-5.5°C 94% 0.9 mph WNW1.4 kmh WNW 4.0 mph6.4 kmh 29.69 in1005.4 mb 0.00 in0.0 mm 0.00 in0.0 mm 0.00 in0.0 mm
05:58 AM 23.4°F-4.8°C 21.9°F-5.6°C 94% 2.0 mph W3.2 kmh W 5.0 mph8.0 kmh 29.66 in1004.4 mb 0.00 in0.0 mm 0.00 in0.0 mm 0.00 in0.0 mm
06:08 AM 23.4°F-4.8°C 21.9°F-5.6°C 94% 2.0 mph NW3.2 kmh NW 6.0 mph9.7 kmh 29.64 in1003.7 mb 0.00 in0.0 mm 0.00 in0.0 mm 0.00 in0.0 mm
06:18 AM 23.2°F-4.9°C 21.7°F-5.7°C 94% 2.0 mph WNW3.2 kmh WNW 6.0 mph9.7 kmh 29.65 in1004.1 mb 0.00 in0.0 mm 0.00 in0.0 mm 0.00 in0.0 mm
06:28 AM 23.2°F-4.9°C 21.7°F-5.7°C 94% Calm Calm 4.0 mph6.4 kmh 29.69 in1005.4 mb 0.00 in0.0 mm 0.00 in0.0 mm 0.00 in0.0 mm
06:38 AM 23.4°F-4.8°C 21.9°F-5.6°C 94% Calm Calm 0.9 mph1.4 kmh 29.70 in1005.8 mb 0.00 in0.0 mm 0.00 in0.0 mm 0.00 in0.0 mm
06:48 AM 23.5°F-4.7°C 22.1°F-5.5°C 94% Calm Calm -- 29.72 in1006.4 mb 0.00 in0.0 mm 0.00 in0.0 mm 0.00 in0.0 mm
06:58 AM 23.7°F-4.6°C 22.3°F-5.4°C 94% Calm Calm 0.9 mph1.4 kmh 29.71 in1006.1 mb 0.00 in0.0 mm 0.00 in0.0 mm 0.00 in0.0 mm
07:08 AM 23.9°F-4.5°C 22.6°F-5.2°C 95% Calm Calm 0.9 mph1.4 kmh 29.72 in1006.4 mb 0.00 in0.0 mm 0.00 in0.0 mm 0.00 in0.0 mm
07:18 AM 24.1°F-4.4°C 22.6°F-5.2°C 94% Calm Calm 3.0 mph4.8 kmh 29.72 in1006.4 mb 0.00 in0.0 mm 0.00 in0.0 mm 0.00 in0.0 mm
07:28 AM 24.1°F-4.4°C 22.6°F-5.2°C 94% Calm Calm 2.0 mph3.2 kmh 29.72 in1006.4 mb 0.00 in0.0 mm 0.00 in0.0 mm 0.00 in0.0 mm
07:38 AM 24.3°F-4.3°C 22.8°F-5.1°C 94% Calm Calm 3.0 mph4.8 kmh 29.73 in1006.8 mb 0.00 in0.0 mm 0.00 in0.0 mm 0.00 in0.0 mm
07:48 AM 24.3°F-4.3°C 22.8°F-5.1°C 94% 0.9 mph WNW1.4 kmh WNW 4.0 mph6.4 kmh 29.72 in1006.4 mb 0.00 in0.0 mm 0.00 in0.0 mm 0.00 in0.0 mm
07:58 AM 24.4°F-4.2°C 23.0°F-5.0°C 94% Calm Calm 2.9 mph4.7 kmh 29.73 in1006.8 mb 0.00 in0.0 mm 0.00 in0.0 mm 0.00 in0.0 mm
08:08 AM 24.6°F-4.1°C 23.2°F-4.9°C 94% Calm Calm 3.0 mph4.8 kmh 29.72 in1006.4 mb 0.00 in0.0 mm 0.00 in0.0 mm 0.00 in0.0 mm
08:18 AM 24.6°F-4.1°C 23.2°F-4.9°C 94% 0.9 mph SW1.4 kmh SW 4.0 mph6.4 kmh 29.72 in1006.4 mb 0.00 in0.0 mm 0.00 in0.0 mm 0.00 in0.0 mm
08:28 AM 24.6°F-4.1°C 23.2°F-4.9°C 94% 0.9 mph W1.4 kmh W 4.0 mph6.4 kmh 29.70 in1005.8 mb 0.00 in0.0 mm 0.00 in0.0 mm 0.00 in0.0 mm
08:38 AM 25.2°F-3.8°C 23.7°F-4.6°C 94% 0.9 mph WNW1.4 kmh WNW 5.0 mph8.0 kmh 29.71 in1006.1 mb 0.00 in0.0 mm 0.00 in0.0 mm 0.00 in0.0 mm
08:48 AM 25.0°F-3.9°C 23.5°F-4.7°C 94% 0.9 mph NW1.4 kmh NW 5.0 mph8.0 kmh 29.71 in1006.1 mb 0.00 in0.0 mm 0.00 in0.0 mm 0.00 in0.0 mm
08:58 AM 25.0°F-3.9°C 23.5°F-4.7°C 94% 0.9 mph W1.4 kmh W 4.0 mph6.4 kmh 29.70 in1005.8 mb 0.00 in0.0 mm 0.00 in0.0 mm 0.00 in0.0 mm
09:08 AM 25.2°F-3.8°C 23.4°F-4.8°C 93% 0.9 mph W1.4 kmh W 4.0 mph6.4 kmh 29.70 in1005.8 mb 0.00 in0.0 mm 0.00 in0.0 mm 0.00 in0.0 mm
09:18 AM 25.5°F-3.6°C 24.1°F-4.4°C 94% 0.9 mph W1.4 kmh W 4.0 mph6.4 kmh 29.70 in1005.8 mb 0.00 in0.0 mm 0.00 in0.0 mm 0.00 in0.0 mm
09:28 AM 25.9°F-3.4°C 24.1°F-4.4°C 93% 2.0 mph N3.2 kmh N 5.0 mph8.0 kmh 29.70 in1005.8 mb 0.00 in0.0 mm 0.00 in0.0 mm 0.00 in0.0 mm
09:38 AM 26.4°F-3.1°C 25.0°F-3.9°C 94% 0.9 mph W1.4 kmh W 4.0 mph6.4 kmh 29.70 in1005.8 mb 0.00 in0.0 mm 0.00 in0.0 mm 0.00 in0.0 mm
09:48 AM 26.4°F-3.1°C 24.6°F-4.1°C 93% 2.0 mph WNW3.2 kmh WNW 4.0 mph6.4 kmh 29.70 in1005.8 mb 0.00 in0.0 mm 0.00 in0.0 mm 0.00 in0.0 mm
09:58 AM 26.6°F-3.0°C 24.8°F-4.0°C 93% 0.9 mph WNW1.4 kmh WNW 2.9 mph4.7 kmh 29.69 in1005.4 mb 0.00 in0.0 mm 0.00 in0.0 mm 0.00 in0.0 mm
10:08 AM 26.8°F-2.9°C 25.0°F-3.9°C 93% 0.9 mph NW1.4 kmh NW 4.0 mph6.4 kmh 29.69 in1005.4 mb 0.00 in0.0 mm 0.00 in0.0 mm 0.00 in0.0 mm
10:18 AM 27.3°F-2.6°C 25.5°F-3.6°C 93% Calm Calm 2.9 mph4.7 kmh 29.69 in1005.4 mb 0.00 in0.0 mm 0.00 in0.0 mm 0.00 in0.0 mm
10:28 AM 27.7°F-2.4°C 25.9°F-3.4°C 93% 0.9 mph N1.4 kmh N 4.0 mph6.4 kmh 29.68 in1005.1 mb 0.00 in0.0 mm 0.00 in0.0 mm 0.00 in0.0 mm
10:38 AM 28.2°F-2.1°C 26.4°F-3.1°C 93% 0.9 mph WNW1.4 kmh WNW 2.9 mph4.7 kmh 29.67 in1004.7 mb 0.00 in0.0 mm 0.00 in0.0 mm 0.00 in0.0 mm
10:48 AM 28.8°F-1.8°C 27.0°F-2.8°C 93% 0.9 mph WNW1.4 kmh WNW 2.9 mph4.7 kmh 29.66 in1004.4 mb 0.00 in0.0 mm 0.00 in0.0 mm 0.00 in0.0 mm
10:58 AM 28.8°F-1.8°C 26.8°F-2.9°C 92% 0.9 mph NNW1.4 kmh NNW 4.0 mph6.4 kmh 29.66 in1004.4 mb 0.00 in0.0 mm 0.00 in0.0 mm 0.00 in0.0 mm
11:11 AM 28.8°F-1.8°C 27.0°F-2.8°C 93% 0.9 mph W1.4 kmh W -- 29.65 in1004.1 mb 0.00 in0.0 mm 0.00 in0.0 mm 0.00 in0.0 mm
11:21 AM 29.1°F-1.6°C 27.3°F-2.6°C 93% 0.9 mph WNW1.4 kmh WNW 2.9 mph4.7 kmh 29.65 in1004.1 mb 0.00 in0.0 mm 0.00 in0.0 mm 0.00 in0.0 mm
11:31 AM 29.7°F-1.3°C 27.9°F-2.3°C 93% Calm Calm 2.9 mph4.7 kmh 29.65 in1004.1 mb 0.00 in0.0 mm 0.00 in0.0 mm 0.00 in0.0 mm
11:41 AM 30.0°F-1.1°C 28.0°F-2.2°C 92% Calm Calm 2.0 mph3.2 kmh 29.64 in1003.7 mb 0.00 in0.0 mm 0.00 in0.0 mm 0.00 in0.0 mm
11:51 AM 30.4°F-0.9°C 28.4°F-2.0°C 92% Calm Calm 3.0 mph4.8 kmh 29.64 in1003.7 mb 0.00 in0.0 mm 0.00 in0.0 mm 0.00 in0.0 mm
12:01 PM 30.6°F-0.8°C 28.6°F-1.9°C 92% Calm Calm 2.0 mph3.2 kmh 29.63 in1003.4 mb 0.00 in0.0 mm 0.00 in0.0 mm 0.00 in0.0 mm
12:11 PM 30.4°F-0.9°C 28.0°F-2.2°C 91% 0.9 mph NW1.4 kmh NW 4.9 mph7.9 kmh 29.62 in1003.0 mb 0.00 in0.0 mm 0.00 in0.0 mm 0.00 in0.0 mm
12:21 PM 30.2°F-1.0°C 27.9°F-2.3°C 91% 0.9 mph WNW1.4 kmh WNW 4.9 mph7.9 kmh 29.62 in1003.0 mb 0.00 in0.0 mm 0.00 in0.0 mm 0.00 in0.0 mm
12:31 PM 30.2°F-1.0°C 27.9°F-2.3°C 91% 0.9 mph W1.4 kmh W 4.0 mph6.4 kmh 29.61 in1002.7 mb 0.00 in0.0 mm 0.00 in0.0 mm 0.00 in0.0 mm
12:41 PM 30.0°F-1.1°C 27.7°F-2.4°C 91% 0.9 mph NNW1.4 kmh NNW 4.0 mph6.4 kmh 29.60 in1002.4 mb 0.00 in0.0 mm 0.00 in0.0 mm 0.00 in0.0 mm
12:51 PM 30.0°F-1.1°C 27.7°F-2.4°C 91% Calm Calm 4.0 mph6.4 kmh 29.60 in1002.4 mb 0.00 in0.0 mm 0.00 in0.0 mm 0.00 in0.0 mm
01:01 PM 29.8°F-1.2°C 27.3°F-2.6°C 90% 0.9 mph N1.4 kmh N 4.0 mph6.4 kmh 29.60 in1002.4 mb 0.00 in0.0 mm 0.00 in0.0 mm 0.00 in0.0 mm
01:11 PM 29.3°F-1.5°C 27.0°F-2.8°C 91% 0.9 mph WNW1.4 kmh WNW 5.0 mph8.0 kmh 29.59 in1002.0 mb 0.00 in0.0 mm 0.00 in0.0 mm 0.00 in0.0 mm
01:21 PM 29.5°F-1.4°C 27.1°F-2.7°C 91% 0.9 mph NW1.4 kmh NW 4.0 mph6.4 kmh 29.59 in1002.0 mb 0.00 in0.0 mm 0.00 in0.0 mm 0.00 in0.0 mm
01:31 PM 29.1°F-1.6°C 26.8°F-2.9°C 91% 0.9 mph WSW1.4 kmh WSW 5.0 mph8.0 kmh 29.59 in1002.0 mb 0.00 in0.0 mm 0.00 in0.0 mm 0.00 in0.0 mm
01:41 PM 29.1°F-1.6°C 27.1°F-2.7°C 92% 0.9 mph NW1.4 kmh NW 2.9 mph4.7 kmh 29.59 in1002.0 mb 0.00 in0.0 mm 0.00 in0.0 mm 0.00 in0.0 mm
01:51 PM 29.3°F-1.5°C 27.3°F-2.6°C 92% Calm Calm 2.0 mph3.2 kmh 29.58 in1001.7 mb 0.00 in0.0 mm 0.00 in0.0 mm 0.00 in0.0 mm
02:01 PM 28.9°F-1.7°C 26.6°F-3.0°C 91% 0.9 mph W1.4 kmh W 4.9 mph7.9 kmh 29.58 in1001.7 mb 0.00 in0.0 mm 0.00 in0.0 mm 0.00 in0.0 mm
02:11 PM 28.9°F-1.7°C 26.6°F-3.0°C 91% 0.9 mph NW1.4 kmh NW 5.0 mph8.0 kmh 29.58 in1001.7 mb 0.00 in0.0 mm 0.00 in0.0 mm 0.00 in0.0 mm
02:21 PM 28.9°F-1.7°C 26.6°F-3.0°C 91% 0.9 mph NW1.4 kmh NW 6.0 mph9.7 kmh 29.58 in1001.7 mb 0.00 in0.0 mm 0.00 in0.0 mm 0.00 in0.0 mm
02:31 PM 28.9°F-1.7°C 26.6°F-3.0°C 91% Calm Calm 6.9 mph11.1 kmh 29.59 in1002.0 mb 0.00 in0.0 mm 0.00 in0.0 mm 0.00 in0.0 mm
02:41 PM 28.8°F-1.8°C 26.4°F-3.1°C 91% 0.9 mph W1.4 kmh W 4.9 mph7.9 kmh 29.59 in1002.0 mb 0.00 in0.0 mm 0.00 in0.0 mm 0.00 in0.0 mm
02:51 PM 28.6°F-1.9°C 26.2°F-3.2°C 91% 0.9 mph SW1.4 kmh SW 4.0 mph6.4 kmh 29.59 in1002.0 mb 0.00 in0.0 mm 0.00 in0.0 mm 0.00 in0.0 mm
03:01 PM 28.6°F-1.9°C 26.2°F-3.2°C 91% 0.9 mph NW1.4 kmh NW 4.9 mph7.9 kmh 29.59 in1002.0 mb 0.00 in0.0 mm 0.00 in0.0 mm 0.00 in0.0 mm
03:11 PM 28.8°F-1.8°C 26.8°F-2.9°C 92% Calm Calm 4.0 mph6.4 kmh 29.59 in1002.0 mb 0.00 in0.0 mm 0.00 in0.0 mm 0.00 in0.0 mm
03:21 PM 28.8°F-1.8°C 26.8°F-2.9°C 92% 0.9 mph WSW1.4 kmh WSW 4.0 mph6.4 kmh 29.59 in1002.0 mb 0.00 in0.0 mm 0.00 in0.0 mm 0.00 in0.0 mm
03:31 PM 28.8°F-1.8°C 26.8°F-2.9°C 92% 0.9 mph NNW1.4 kmh NNW 4.0 mph6.4 kmh 29.59 in1002.0 mb 0.00 in0.0 mm 0.00 in0.0 mm 0.00 in0.0 mm
03:41 PM 28.8°F-1.8°C 26.8°F-2.9°C 92% 0.9 mph NNW1.4 kmh NNW 2.9 mph4.7 kmh 29.59 in1002.0 mb 0.00 in0.0 mm 0.00 in0.0 mm 0.00 in0.0 mm
03:51 PM 28.8°F-1.8°C 26.8°F-2.9°C 92% 0.9 mph NW1.4 kmh NW 7.0 mph11.3 kmh 29.59 in1002.0 mb 0.00 in0.0 mm 0.00 in0.0 mm 0.00 in0.0 mm
04:01 PM 28.8°F-1.8°C 26.8°F-2.9°C 92% 0.9 mph W1.4 kmh W 6.9 mph11.1 kmh 29.59 in1002.0 mb 0.00 in0.0 mm 0.00 in0.0 mm 0.00 in0.0 mm
04:11 PM 28.8°F-1.8°C 26.8°F-2.9°C 92% Calm Calm 2.0 mph3.2 kmh 29.59 in1002.0 mb 0.00 in0.0 mm 0.00 in0.0 mm 0.00 in0.0 mm
04:21 PM 28.8°F-1.8°C 26.8°F-2.9°C 92% Calm Calm 3.0 mph4.8 kmh 29.59 in1002.0 mb 0.00 in0.0 mm 0.00 in0.0 mm 0.00 in0.0 mm
04:31 PM 28.6°F-1.9°C 26.2°F-3.2°C 91% 0.9 mph WNW1.4 kmh WNW 3.0 mph4.8 kmh 29.59 in1002.0 mb 0.00 in0.0 mm 0.00 in0.0 mm 0.00 in0.0 mm
04:41 PM 28.2°F-2.1°C 25.9°F-3.4°C 91% Calm Calm 2.9 mph4.7 kmh 29.59 in1002.0 mb 0.00 in0.0 mm 0.00 in0.0 mm 0.00 in0.0 mm
04:51 PM 28.2°F-2.1°C 25.9°F-3.4°C 91% Calm Calm 3.0 mph4.8 kmh 29.60 in1002.4 mb 0.00 in0.0 mm 0.00 in0.0 mm 0.00 in0.0 mm
05:01 PM 28.0°F-2.2°C 25.7°F-3.5°C 91% Calm Calm 4.0 mph6.4 kmh 29.60 in1002.4 mb 0.00 in0.0 mm 0.00 in0.0 mm 0.00 in0.0 mm
05:11 PM 28.0°F-2.2°C 25.7°F-3.5°C 91% Calm Calm 3.0 mph4.8 kmh 29.61 in1002.7 mb 0.00 in0.0 mm 0.00 in0.0 mm 0.00 in0.0 mm
05:21 PM 28.0°F-2.2°C 26.1°F-3.3°C 92% Calm Calm 2.9 mph4.7 kmh 29.62 in1003.0 mb 0.00 in0.0 mm 0.00 in0.0 mm 0.00 in0.0 mm
05:31 PM 27.9°F-2.3°C 25.5°F-3.6°C 91% Calm Calm 2.0 mph3.2 kmh 29.62 in1003.0 mb 0.00 in0.0 mm 0.00 in0.0 mm 0.00 in0.0 mm
05:41 PM 27.9°F-2.3°C 25.5°F-3.6°C 91% Calm Calm 2.0 mph3.2 kmh 29.63 in1003.4 mb 0.00 in0.0 mm 0.00 in0.0 mm 0.00 in0.0 mm
05:51 PM 27.9°F-2.3°C 25.5°F-3.6°C 91% Calm Calm 4.0 mph6.4 kmh 29.63 in1003.4 mb 0.00 in0.0 mm 0.00 in0.0 mm 0.00 in0.0 mm
06:01 PM 27.7°F-2.4°C 25.3°F-3.7°C 91% Calm Calm 0.9 mph1.4 kmh 29.63 in1003.4 mb 0.00 in0.0 mm 0.00 in0.0 mm 0.00 in0.0 mm
06:11 PM 27.7°F-2.4°C 25.3°F-3.7°C 91% Calm Calm 0.9 mph1.4 kmh 29.63 in1003.4 mb 0.00 in0.0 mm 0.00 in0.0 mm 0.00 in0.0 mm
06:21 PM 27.7°F-2.4°C 25.3°F-3.7°C 91% Calm Calm 2.0 mph3.2 kmh 29.63 in1003.4 mb 0.00 in0.0 mm 0.00 in0.0 mm 0.00 in0.0 mm
06:31 PM 27.5°F-2.5°C 25.2°F-3.8°C 91% Calm Calm 2.0 mph3.2 kmh 29.63 in1003.4 mb 0.00 in0.0 mm 0.00 in0.0 mm 0.00 in0.0 mm
06:41 PM 27.3°F-2.6°C 24.8°F-4.0°C 90% Calm Calm 3.0 mph4.8 kmh 29.63 in1003.4 mb 0.00 in0.0 mm 0.00 in0.0 mm 0.00 in0.0 mm
06:51 PM 27.3°F-2.6°C 24.8°F-4.0°C 90% Calm Calm 3.0 mph4.8 kmh 29.62 in1003.0 mb 0.00 in0.0 mm 0.00 in0.0 mm 0.00 in0.0 mm
07:01 PM 27.3°F-2.6°C 25.0°F-3.9°C 91% Calm Calm 0.9 mph1.4 kmh 29.62 in1003.0 mb 0.00 in0.0 mm 0.00 in0.0 mm 0.00 in0.0 mm
07:11 PM 27.1°F-2.7°C 24.8°F-4.0°C 91% Calm Calm 0.9 mph1.4 kmh 29.62 in1003.0 mb 0.00 in0.0 mm 0.00 in0.0 mm 0.00 in0.0 mm
07:21 PM 27.3°F-2.6°C 25.0°F-3.9°C 91% Calm Calm 2.0 mph3.2 kmh 29.62 in1003.0 mb 0.00 in0.0 mm 0.00 in0.0 mm 0.00 in0.0 mm
07:31 PM 27.0°F-2.8°C 24.4°F-4.2°C 90% Calm Calm 0.9 mph1.4 kmh 29.62 in1003.0 mb 0.00 in0.0 mm 0.00 in0.0 mm 0.00 in0.0 mm
07:41 PM 26.8°F-2.9°C 24.4°F-4.2°C 91% Calm Calm 2.0 mph3.2 kmh 29.62 in1003.0 mb 0.00 in0.0 mm 0.00 in0.0 mm 0.00 in0.0 mm
07:51 PM 26.8°F-2.9°C 24.4°F-4.2°C 91% Calm Calm 2.0 mph3.2 kmh 29.62 in1003.0 mb 0.00 in0.0 mm 0.00 in0.0 mm 0.00 in0.0 mm
08:01 PM 26.8°F-2.9°C 24.3°F-4.3°C 90% Calm Calm 0.9 mph1.4 kmh 29.63 in1003.4 mb 0.00 in0.0 mm 0.00 in0.0 mm 0.00 in0.0 mm
08:11 PM 26.8°F-2.9°C 24.3°F-4.3°C 90% Calm Calm 0.9 mph1.4 kmh 29.64 in1003.7 mb 0.00 in0.0 mm 0.00 in0.0 mm 0.00 in0.0 mm
08:21 PM 27.1°F-2.7°C 24.6°F-4.1°C 90% Calm Calm 1.0 mph1.6 kmh 29.64 in1003.7 mb 0.00 in0.0 mm 0.00 in0.0 mm 0.00 in0.0 mm
08:31 PM 27.0°F-2.8°C 24.4°F-4.2°C 90% Calm Calm 1.0 mph1.6 kmh 29.65 in1004.1 mb 0.00 in0.0 mm 0.00 in0.0 mm 0.00 in0.0 mm
08:41 PM 27.0°F-2.8°C 24.1°F-4.4°C 89% Calm Calm 2.0 mph3.2 kmh 29.65 in1004.1 mb 0.00 in0.0 mm 0.00 in0.0 mm 0.00 in0.0 mm
08:51 PM 27.1°F-2.7°C 24.3°F-4.3°C 89% Calm Calm 0.9 mph1.4 kmh 29.65 in1004.1 mb 0.00 in0.0 mm 0.00 in0.0 mm 0.00 in0.0 mm
09:01 PM 27.1°F-2.7°C 24.3°F-4.3°C 89% Calm Calm -- 29.65 in1004.1 mb 0.00 in0.0 mm 0.00 in0.0 mm 0.00 in0.0 mm
09:11 PM 27.1°F-2.7°C 24.3°F-4.3°C 89% Calm Calm -- 29.65 in1004.1 mb 0.00 in0.0 mm 0.00 in0.0 mm 0.00 in0.0 mm
09:21 PM 27.1°F-2.7°C 24.3°F-4.3°C 89% Calm Calm -- 29.65 in1004.1 mb 0.00 in0.0 mm 0.00 in0.0 mm 0.00 in0.0 mm
09:31 PM 27.1°F-2.7°C 24.3°F-4.3°C 89% Calm Calm -- 29.64 in1003.7 mb 0.00 in0.0 mm 0.00 in0.0 mm 0.00 in0.0 mm
09:41 PM 27.0°F-2.8°C 24.1°F-4.4°C 89% Calm Calm -- 29.65 in1004.1 mb 0.00 in0.0 mm 0.00 in0.0 mm 0.00 in0.0 mm
09:51 PM 27.0°F-2.8°C 24.1°F-4.4°C 89% Calm Calm -- 29.65 in1004.1 mb 0.00 in0.0 mm 0.00 in0.0 mm 0.00 in0.0 mm
10:01 PM 27.0°F-2.8°C 24.4°F-4.2°C 90% Calm Calm 1.0 mph1.6 kmh 29.64 in1003.7 mb 0.00 in0.0 mm 0.00 in0.0 mm 0.00 in0.0 mm
10:11 PM 26.8°F-2.9°C 24.3°F-4.3°C 90% Calm Calm -- 29.63 in1003.4 mb 0.00 in0.0 mm 0.00 in0.0 mm 0.00 in0.0 mm
10:21 PM 26.6°F-3.0°C 24.1°F-4.4°C 90% Calm Calm -- 29.62 in1003.0 mb 0.00 in0.0 mm 0.00 in0.0 mm 0.00 in0.0 mm
10:31 PM 26.2°F-3.2°C 23.7°F-4.6°C 90% Calm Calm -- 29.62 in1003.0 mb 0.00 in0.0 mm 0.00 in0.0 mm 0.00 in0.0 mm
10:41 PM 26.1°F-3.3°C 23.5°F-4.7°C 90% Calm Calm 1.0 mph1.6 kmh 29.62 in1003.0 mb 0.00 in0.0 mm 0.00 in0.0 mm 0.00 in0.0 mm
10:51 PM 26.1°F-3.3°C 23.7°F-4.6°C 91% Calm Calm 0.9 mph1.4 kmh 29.62 in1003.0 mb 0.00 in0.0 mm 0.00 in0.0 mm 0.00 in0.0 mm
11:01 PM 25.5°F-3.6°C 23.0°F-5.0°C 90% Calm Calm 0.9 mph1.4 kmh 29.64 in1003.7 mb 0.00 in0.0 mm 0.00 in0.0 mm 0.00 in0.0 mm
11:11 PM 25.0°F-3.9°C 22.5°F-5.3°C 90% Calm Calm 0.9 mph1.4 kmh 29.64 in1003.7 mb 0.00 in0.0 mm 0.00 in0.0 mm 0.00 in0.0 mm
11:21 PM 24.4°F-4.2°C 22.3°F-5.4°C 91% Calm Calm -- 29.63 in1003.4 mb 0.00 in0.0 mm 0.00 in0.0 mm 0.00 in0.0 mm
11:31 PM 23.9°F-4.5°C 21.7°F-5.7°C 91% Calm Calm -- 29.63 in1003.4 mb 0.00 in0.0 mm 0.00 in0.0 mm 0.00 in0.0 mm
11:41 PM 23.2°F-4.9°C 21.0°F-6.1°C 91% Calm Calm -- 29.62 in1003.0 mb 0.00 in0.0 mm 0.00 in0.0 mm 0.00 in0.0 mm
11:51 PM 22.5°F-5.3°C 20.3°F-6.5°C 91% Calm Calm -- 29.62 in1003.0 mb 0.00 in0.0 mm 0.00 in0.0 mm 0.00 in0.0 mm